createdAt,value
2023-05-13T00:01:55.644Z,15.33
2023-05-13T00:04:42.822Z,15.43
2023-05-13T00:07:30.073Z,15.67
2023-05-13T00:10:17.191Z,14.03
2023-05-13T00:13:04.305Z,14.20
2023-05-13T00:15:51.676Z,15.57
2023-05-13T00:18:38.861Z,14.10
2023-05-13T00:21:28.587Z,15.20
2023-05-13T00:24:15.730Z,13.07
2023-05-13T00:27:02.887Z,14.63
2023-05-13T00:29:50.190Z,16.73
2023-05-13T00:32:37.411Z,12.93
2023-05-13T00:35:24.560Z,15.43
2023-05-13T00:38:11.749Z,17.83
2023-05-13T00:40:58.905Z,12.90
2023-05-13T00:43:46.139Z,15.20
2023-05-13T00:46:33.913Z,17.50
2023-05-13T00:49:22.457Z,16.00
2023-05-13T00:52:11.479Z,14.80
2023-05-13T00:54:58.729Z,13.20
2023-05-13T00:57:45.970Z,18.60
2023-05-13T01:00:42.696Z,15.00
2023-05-13T01:03:42.804Z,14.13
2023-05-13T01:06:51.313Z,15.40
2023-05-13T01:10:02.586Z,14.73
2023-05-13T01:12:56.405Z,14.07
2023-05-13T01:15:57.558Z,14.13
2023-05-13T01:18:57.402Z,15.50
2023-05-13T01:21:55.119Z,18.13
2023-05-13T01:24:42.334Z,13.60
2023-05-13T01:27:29.481Z,14.07
2023-05-13T01:30:16.828Z,15.47
2023-05-13T01:33:04.372Z,14.47
2023-05-13T01:35:52.493Z,16.37
2023-05-13T01:38:40.855Z,14.40
2023-05-13T01:41:27.929Z,17.50
2023-05-13T01:44:15.805Z,14.17
2023-05-13T01:47:02.972Z,14.80
2023-05-13T01:49:51.089Z,16.30
2023-05-13T01:52:38.263Z,16.83
2023-05-13T01:55:25.396Z,19.10
2023-05-13T01:58:12.651Z,17.47
2023-05-13T02:01:00.611Z,18.87
2023-05-13T02:03:47.801Z,15.17
2023-05-13T02:06:35.039Z,16.03
2023-05-13T02:09:22.169Z,13.93
2023-05-13T02:12:09.322Z,16.87
2023-05-13T02:14:56.539Z,16.20
2023-05-13T02:17:43.795Z,17.57
2023-05-13T02:20:31.018Z,16.37
2023-05-13T02:23:18.148Z,17.13
2023-05-13T02:26:05.422Z,17.87
2023-05-13T02:28:52.534Z,14.80
2023-05-13T02:31:41.225Z,17.10
2023-05-13T02:34:29.425Z,16.27
2023-05-13T02:37:17.381Z,16.93
2023-05-13T02:40:06.252Z,14.70
2023-05-13T02:42:53.434Z,14.90
2023-05-13T02:45:43.973Z,14.97
2023-05-13T02:48:32.601Z,18.67
2023-05-13T02:51:21.116Z,16.87
2023-05-13T02:54:08.358Z,18.10
2023-05-13T02:56:55.470Z,17.13
2023-05-13T02:59:42.738Z,15.20
2023-05-13T03:02:29.994Z,16.00
2023-05-13T03:05:17.222Z,19.00
2023-05-13T03:08:04.966Z,15.83
2023-05-13T03:10:53.120Z,17.70
2023-05-13T03:13:40.554Z,17.47
2023-05-13T03:16:27.735Z,15.43
2023-05-13T03:19:14.951Z,15.30
2023-05-13T03:22:02.325Z,16.17
2023-05-13T03:24:49.418Z,16.80
2023-05-13T03:27:36.646Z,17.83
2023-05-13T03:30:23.826Z,17.80
2023-05-13T03:33:11.247Z,19.27
2023-05-13T03:35:58.430Z,18.20
2023-05-13T03:38:45.763Z,15.87
2023-05-13T03:41:33.137Z,15.90
2023-05-13T03:44:20.393Z,15.73
2023-05-13T03:47:07.652Z,19.67
2023-05-13T03:49:55.002Z,18.10
2023-05-13T03:52:42.507Z,18.47
2023-05-13T03:55:30.690Z,18.93
2023-05-13T03:58:18.535Z,19.93
2023-05-13T04:01:06.873Z,21.47
2023-05-13T04:03:53.970Z,18.37
2023-05-13T04:06:42.359Z,18.57
2023-05-13T04:09:29.579Z,18.93
2023-05-13T04:12:18.210Z,19.10
2023-05-13T04:15:05.824Z,18.93
2023-05-13T04:17:53.970Z,17.77
2023-05-13T04:20:41.165Z,19.13
2023-05-13T04:23:28.261Z,19.67
2023-05-13T04:26:15.485Z,20.27
2023-05-13T04:29:02.615Z,20.93
2023-05-13T04:31:49.717Z,20.07
2023-05-13T04:34:36.880Z,20.57
2023-05-13T04:37:24.010Z,16.40
2023-05-13T04:40:11.602Z,17.63
2023-05-13T04:42:58.713Z,19.80
2023-05-13T04:45:47.991Z,19.37
2023-05-13T04:48:35.142Z,17.10
2023-05-13T04:51:23.006Z,17.40
2023-05-13T04:54:10.438Z,15.90
2023-05-13T04:56:57.660Z,18.63
2023-05-13T04:59:44.783Z,18.20
2023-05-13T05:02:32.039Z,19.73
2023-05-13T05:05:19.241Z,18.47
2023-05-13T05:08:08.695Z,19.50
2023-05-13T05:10:56.185Z,18.63
2023-05-13T05:13:43.314Z,18.33
2023-05-13T05:16:30.545Z,18.13
2023-05-13T05:19:17.908Z,17.27
2023-05-13T05:22:05.376Z,16.10
2023-05-13T05:24:52.505Z,17.97
2023-05-13T05:27:40.148Z,16.47
2023-05-13T05:30:27.624Z,19.20
2023-05-13T05:33:14.796Z,16.30
2023-05-13T05:36:03.179Z,16.53
2023-05-13T05:38:50.487Z,13.77
2023-05-13T05:41:37.839Z,16.93
2023-05-13T05:44:24.983Z,17.30
2023-05-13T05:47:12.168Z,16.20
2023-05-13T05:49:59.900Z,15.10
2023-05-13T05:52:47.024Z,13.00
2023-05-13T05:55:34.371Z,14.43
2023-05-13T05:58:21.569Z,16.13
2023-05-13T06:01:08.737Z,13.73
2023-05-13T06:03:56.135Z,12.87
2023-05-13T06:06:43.939Z,13.27
2023-05-13T06:09:31.190Z,12.20
2023-05-13T06:12:18.304Z,14.47
2023-05-13T06:15:10.727Z,12.97
2023-05-13T06:17:58.352Z,14.80
2023-05-13T06:20:45.632Z,14.07
2023-05-13T06:23:33.122Z,11.07
2023-05-13T06:26:22.189Z,12.67
2023-05-13T06:29:09.490Z,12.47
2023-05-13T06:31:57.187Z,11.17
2023-05-13T06:34:45.985Z,11.87
2023-05-13T06:37:33.144Z,9.77
2023-05-13T06:40:20.636Z,10.23
2023-05-13T06:43:07.859Z,9.83
2023-05-13T06:45:54.974Z,13.60
2023-05-13T06:48:42.333Z,12.87
2023-05-13T06:51:30.723Z,12.17
2023-05-13T06:54:17.873Z,11.87
2023-05-13T06:57:05.790Z,10.13
2023-05-13T06:59:53.011Z,13.20
2023-05-13T07:02:40.503Z,8.23
2023-05-13T07:05:27.700Z,8.37
2023-05-13T07:08:17.924Z,7.90
2023-05-13T07:11:05.261Z,11.03
2023-05-13T07:13:52.778Z,9.07
2023-05-13T07:16:39.966Z,7.90
2023-05-13T07:19:27.260Z,6.87
2023-05-13T07:22:14.470Z,7.63
2023-05-13T07:25:01.862Z,7.80
2023-05-13T07:27:49.416Z,6.50
2023-05-13T07:30:36.615Z,4.93
2023-05-13T07:33:23.781Z,6.17
2023-05-13T07:36:10.991Z,7.20
2023-05-13T07:38:58.153Z,7.83
2023-05-13T07:41:45.260Z,7.13
2023-05-13T07:44:32.425Z,6.73
2023-05-13T07:47:19.633Z,6.67
2023-05-13T07:50:07.368Z,7.17
2023-05-13T07:52:55.191Z,7.33
2023-05-13T07:55:42.291Z,5.63
2023-05-13T07:58:29.693Z,6.77
2023-05-13T08:01:17.995Z,4.73
2023-05-13T08:04:05.515Z,5.23
2023-05-13T08:06:53.046Z,6.40
2023-05-13T08:09:40.560Z,7.50
2023-05-13T08:12:30.350Z,6.23
2023-05-13T08:15:19.756Z,5.97
2023-05-13T08:18:07.454Z,6.68
2023-05-13T08:20:55.017Z,4.97
2023-05-13T08:23:45.976Z,5.95
2023-05-13T08:26:33.869Z,5.07
2023-05-13T08:29:20.992Z,5.70
2023-05-13T08:32:08.168Z,3.50
2023-05-13T08:34:55.359Z,4.18
2023-05-13T08:37:43.504Z,5.28
2023-05-13T08:40:31.713Z,5.60
2023-05-13T08:43:20.052Z,6.80
2023-05-13T08:46:10.903Z,5.60
2023-05-13T08:48:59.060Z,5.45
2023-05-13T08:51:47.135Z,6.75
2023-05-13T08:54:34.838Z,3.65
2023-05-13T08:57:22.060Z,4.93
2023-05-13T09:00:09.742Z,3.67
2023-05-13T09:02:56.933Z,3.90
2023-05-13T09:05:45.572Z,6.32
2023-05-13T09:08:32.812Z,2.65
2023-05-13T09:11:20.047Z,3.30
2023-05-13T09:14:12.561Z,6.32
2023-05-13T09:17:01.974Z,4.00
2023-05-13T09:19:49.204Z,2.63
2023-05-13T09:22:36.490Z,3.67
2023-05-13T09:25:24.979Z,4.15
2023-05-13T09:28:15.228Z,4.35
2023-05-13T09:31:02.566Z,5.97
2023-05-13T09:33:53.358Z,2.65
2023-05-13T09:36:41.836Z,2.97
2023-05-13T09:39:29.928Z,5.38
2023-05-13T09:42:22.142Z,3.30
2023-05-13T09:45:10.310Z,4.22
2023-05-13T09:47:57.612Z,3.72
2023-05-13T09:50:49.910Z,3.53
2023-05-13T09:53:37.210Z,4.72
2023-05-13T09:56:24.351Z,5.03
2023-05-13T09:59:11.670Z,4.68
2023-05-13T10:02:04.170Z,3.97
2023-05-13T10:04:52.255Z,7.25
2023-05-13T10:07:39.608Z,6.60
2023-05-13T10:10:28.215Z,7.95
2023-05-13T10:13:18.086Z,9.30
2023-05-13T10:16:05.740Z,4.13
2023-05-13T10:18:53.104Z,4.20
2023-05-13T10:21:41.508Z,5.57
2023-05-13T10:24:29.507Z,3.88
2023-05-13T10:27:17.915Z,6.25
2023-05-13T10:30:09.715Z,7.38
2023-05-13T10:32:57.555Z,6.72
2023-05-13T10:36:05.643Z,5.28
2023-05-13T10:39:38.774Z,7.05
2023-05-13T10:42:31.878Z,8.70
2023-05-13T10:45:19.102Z,3.72
2023-05-13T10:48:08.016Z,7.57
2023-05-13T10:51:02.117Z,6.95
2023-05-13T10:53:51.412Z,8.00
2023-05-13T10:56:38.520Z,5.47
2023-05-13T10:59:30.988Z,4.82
2023-05-13T11:02:25.814Z,4.18
2023-05-13T11:05:24.124Z,5.07
2023-05-13T11:08:11.953Z,9.15
2023-05-13T11:10:59.134Z,8.88
2023-05-13T11:13:46.614Z,6.53
2023-05-13T11:16:34.819Z,5.25
2023-05-13T11:19:25.887Z,16.65
2023-05-13T11:22:24.543Z,7.38
2023-05-13T11:25:13.302Z,5.50
2023-05-13T11:28:00.597Z,4.85
2023-05-13T11:30:55.837Z,4.28
2023-05-13T11:34:15.106Z,4.50
2023-05-13T11:37:05.119Z,6.55
2023-05-13T11:39:52.291Z,9.27
2023-05-13T11:42:40.272Z,6.50
2023-05-13T11:45:28.740Z,3.38
2023-05-13T11:48:21.164Z,5.32
2023-05-13T11:51:08.318Z,5.95
2023-05-13T11:54:05.064Z,7.43
2023-05-13T11:56:53.256Z,6.93
2023-05-13T11:59:48.200Z,4.43
2023-05-13T12:02:37.957Z,18.52
2023-05-13T12:05:26.534Z,8.52
2023-05-13T12:08:14.614Z,5.18
2023-05-13T12:11:20.427Z,3.85
2023-05-13T12:14:09.771Z,4.45
2023-05-13T12:16:57.663Z,3.40
2023-05-13T12:20:07.089Z,4.57
2023-05-13T12:22:57.080Z,4.97
2023-05-13T12:25:46.670Z,4.43
2023-05-13T12:28:33.940Z,7.72
2023-05-13T12:31:21.041Z,7.22
2023-05-13T12:34:08.259Z,11.68
2023-05-13T12:36:55.470Z,6.70
2023-05-13T12:39:43.791Z,29.55
2023-05-13T12:42:31.048Z,15.43
2023-05-13T12:45:21.891Z,14.13
2023-05-13T12:48:09.623Z,8.20
2023-05-13T12:50:56.892Z,6.57
2023-05-13T12:53:44.038Z,3.78
2023-05-13T12:56:31.313Z,6.47
2023-05-13T12:59:19.390Z,3.75
2023-05-13T13:02:07.091Z,4.88
2023-05-13T13:04:54.201Z,4.68
2023-05-13T13:07:42.318Z,3.70
2023-05-13T13:10:29.463Z,3.97
2023-05-13T13:13:16.581Z,3.53
2023-05-13T13:16:04.538Z,4.38
2023-05-13T13:18:54.205Z,3.10
2023-05-13T13:21:42.967Z,6.70
2023-05-13T13:24:30.121Z,4.90
2023-05-13T13:27:17.262Z,3.47
2023-05-13T13:30:04.846Z,6.00
2023-05-13T13:32:52.103Z,2.45
2023-05-13T13:35:39.391Z,6.03
2023-05-13T13:38:26.525Z,2.95
2023-05-13T13:41:13.670Z,3.42
2023-05-13T13:44:01.816Z,4.78
2023-05-13T13:46:48.979Z,3.47
2023-05-13T13:49:36.323Z,2.88
2023-05-13T13:52:26.751Z,4.20
2023-05-13T13:55:20.061Z,4.38
2023-05-13T13:58:07.203Z,4.97
2023-05-13T14:00:54.496Z,3.25
2023-05-13T14:03:41.746Z,2.90
2023-05-13T14:06:29.151Z,2.88
2023-05-13T14:09:16.383Z,2.40
2023-05-13T14:12:03.775Z,3.00
2023-05-13T14:14:50.918Z,4.55
2023-05-13T14:17:38.217Z,4.68
2023-05-13T14:20:25.468Z,3.05
2023-05-13T14:23:12.747Z,3.10
2023-05-13T14:25:59.928Z,3.63
2023-05-13T14:28:47.354Z,3.15
2023-05-13T14:31:43.260Z,4.93
2023-05-13T14:34:30.506Z,7.55
2023-05-13T14:37:19.010Z,3.28
2023-05-13T14:40:09.712Z,3.08
2023-05-13T14:42:56.853Z,2.83
2023-05-13T14:45:43.950Z,3.22
2023-05-13T14:48:31.078Z,3.80
2023-05-13T14:51:18.194Z,2.67
2023-05-13T14:54:13.240Z,6.05
2023-05-13T14:57:00.409Z,3.50
2023-05-13T14:59:47.519Z,2.67
2023-05-13T15:02:34.738Z,3.00
2023-05-13T15:05:22.085Z,3.60
2023-05-13T15:08:09.748Z,2.92
2023-05-13T15:10:56.864Z,3.63
2023-05-13T15:13:43.995Z,4.70
2023-05-13T15:16:31.457Z,2.60
2023-05-13T15:19:20.047Z,3.70
2023-05-13T15:22:09.756Z,4.32
2023-05-13T15:24:56.887Z,3.85
2023-05-13T15:27:44.860Z,4.57
2023-05-13T15:30:32.224Z,3.67
2023-05-13T15:33:19.441Z,4.10
2023-05-13T15:36:07.280Z,3.20
2023-05-13T15:38:54.519Z,3.72
2023-05-13T15:41:44.715Z,4.50
2023-05-13T15:44:39.000Z,3.65
2023-05-13T15:47:29.341Z,3.90
2023-05-13T15:50:17.055Z,3.10
2023-05-13T15:53:34.805Z,3.30
2023-05-13T15:56:24.275Z,3.30
2023-05-13T15:59:11.506Z,2.80
2023-05-13T16:01:58.807Z,3.85
2023-05-13T16:04:46.006Z,3.97
2023-05-13T16:07:34.976Z,4.20
2023-05-13T16:10:22.974Z,5.57
2023-05-13T16:13:10.375Z,5.28
2023-05-13T16:15:57.636Z,4.22
2023-05-13T16:18:44.879Z,3.35
2023-05-13T16:21:32.423Z,3.88
2023-05-13T16:24:19.520Z,3.50
2023-05-13T16:27:06.992Z,4.32
2023-05-13T16:29:54.902Z,4.40
2023-05-13T16:32:42.146Z,5.28
2023-05-13T16:35:29.441Z,5.05
2023-05-13T16:38:16.694Z,6.20
2023-05-13T16:41:03.891Z,5.00
2023-05-13T16:43:51.100Z,4.68
2023-05-13T16:46:38.199Z,3.50
2023-05-13T16:49:25.339Z,2.63
2023-05-13T16:52:12.642Z,3.23
2023-05-13T16:54:59.877Z,3.70
2023-05-13T16:57:47.116Z,3.27
2023-05-13T17:00:34.237Z,3.13
2023-05-13T17:03:21.618Z,4.13
2023-05-13T17:06:09.436Z,3.97
2023-05-13T17:08:56.568Z,5.17
2023-05-13T17:11:43.707Z,7.83
2023-05-13T17:14:31.255Z,6.30
2023-05-13T17:17:18.435Z,6.57
2023-05-13T17:20:06.627Z,4.00
2023-05-13T17:22:53.815Z,3.43
2023-05-13T17:25:41.488Z,3.37
2023-05-13T17:28:28.727Z,2.40
2023-05-13T17:31:16.160Z,2.33
2023-05-13T17:34:03.351Z,2.97
2023-05-13T17:36:50.696Z,3.40
2023-05-13T17:39:37.809Z,6.47
2023-05-13T17:42:24.916Z,2.87
2023-05-13T17:45:12.064Z,2.53
2023-05-13T17:47:59.249Z,3.50
2023-05-13T17:50:46.579Z,6.47
2023-05-13T17:53:35.236Z,3.60
2023-05-13T17:56:22.533Z,6.53
2023-05-13T17:59:09.993Z,6.73
2023-05-13T18:01:57.149Z,4.87
2023-05-13T18:04:45.207Z,6.17
2023-05-13T18:07:32.793Z,3.43
2023-05-13T18:10:20.054Z,10.50
2023-05-13T18:13:07.788Z,5.43
2023-05-13T18:15:54.925Z,4.53
2023-05-13T18:18:42.448Z,4.67
2023-05-13T18:21:31.271Z,4.43
2023-05-13T18:24:18.463Z,6.00
2023-05-13T18:27:07.327Z,3.93
2023-05-13T18:29:54.830Z,4.90
2023-05-13T18:32:41.945Z,2.90
2023-05-13T18:35:29.119Z,5.35
2023-05-13T18:38:16.424Z,4.10
2023-05-13T18:41:03.758Z,4.37
2023-05-13T18:43:51.564Z,6.77
2023-05-13T18:46:38.898Z,5.77
2023-05-13T18:49:28.925Z,9.20
2023-05-13T18:52:16.096Z,3.63
2023-05-13T18:55:07.097Z,6.80
2023-05-13T18:57:54.391Z,4.63
2023-05-13T19:00:41.866Z,6.93
2023-05-13T19:03:29.257Z,7.10
2023-05-13T19:06:16.531Z,5.47
2023-05-13T19:09:04.554Z,4.03
2023-05-13T19:11:51.810Z,5.07
2023-05-13T19:14:39.131Z,7.33
2023-05-13T19:17:27.574Z,7.00
2023-05-13T19:20:17.379Z,7.20
2023-05-13T19:23:04.520Z,5.83
2023-05-13T19:25:51.798Z,6.03
2023-05-13T19:28:41.599Z,5.33
2023-05-13T19:31:28.880Z,7.30
2023-05-13T19:34:16.155Z,7.33
2023-05-13T19:37:04.503Z,6.33
2023-05-13T19:39:51.958Z,5.97
2023-05-13T19:42:39.294Z,7.10
2023-05-13T19:45:26.432Z,4.83
2023-05-13T19:48:14.009Z,5.43
2023-05-13T19:51:01.256Z,5.00
2023-05-13T19:53:48.364Z,9.77
2023-05-13T19:56:35.903Z,7.37
2023-05-13T19:59:23.071Z,6.33
2023-05-13T20:02:10.452Z,8.20
2023-05-13T20:04:57.982Z,7.60
2023-05-13T20:07:45.159Z,10.87
2023-05-13T20:10:32.772Z,10.87
2023-05-13T20:13:19.997Z,11.13
2023-05-13T20:16:07.767Z,10.37
2023-05-13T20:18:55.132Z,8.83
2023-05-13T20:21:42.361Z,7.40
2023-05-13T20:24:29.489Z,10.53
2023-05-13T20:27:17.501Z,11.33
2023-05-13T20:30:04.916Z,11.77
2023-05-13T20:32:52.294Z,13.50
2023-05-13T20:35:39.619Z,14.10
2023-05-13T20:38:27.257Z,10.17
2023-05-13T20:41:14.694Z,11.67
2023-05-13T20:44:01.847Z,11.20
2023-05-13T20:46:49.729Z,10.37
2023-05-13T20:49:38.462Z,10.33
2023-05-13T20:52:26.555Z,11.13
2023-05-13T20:55:15.570Z,9.90
2023-05-13T20:58:02.699Z,12.20
2023-05-13T21:00:57.519Z,9.33
2023-05-13T21:03:45.576Z,8.57
2023-05-13T21:06:33.197Z,8.30
2023-05-13T21:09:20.355Z,9.93
2023-05-13T21:12:08.051Z,9.73
2023-05-13T21:14:55.358Z,10.33
2023-05-13T21:17:42.628Z,9.20
2023-05-13T21:20:30.100Z,11.43
2023-05-13T21:23:19.387Z,9.80
2023-05-13T21:26:07.826Z,12.30
2023-05-13T21:28:55.042Z,9.60
2023-05-13T21:31:42.627Z,9.40
2023-05-13T21:34:35.534Z,10.17
2023-05-13T21:37:23.132Z,10.13
2023-05-13T21:40:10.587Z,9.37
2023-05-13T21:42:57.806Z,10.10
2023-05-13T21:45:47.873Z,10.50
2023-05-13T21:48:38.477Z,10.77
2023-05-13T21:51:25.873Z,10.00
2023-05-13T21:54:13.026Z,14.43
2023-05-13T21:57:01.570Z,8.87
2023-05-13T21:59:48.851Z,10.10
2023-05-13T22:02:36.346Z,12.60
2023-05-13T22:05:24.033Z,11.30
2023-05-13T22:08:11.546Z,10.13
2023-05-13T22:10:58.775Z,10.90
2023-05-13T22:13:46.057Z,12.17
2023-05-13T22:16:33.414Z,12.27
2023-05-13T22:19:20.699Z,10.63
2023-05-13T22:22:07.886Z,12.37
2023-05-13T22:24:55.050Z,10.07
2023-05-13T22:27:42.219Z,11.00
2023-05-13T22:30:29.451Z,12.20
2023-05-13T22:33:16.754Z,10.43
2023-05-13T22:36:04.052Z,12.60
2023-05-13T22:38:51.152Z,13.37
2023-05-13T22:41:38.263Z,11.93
2023-05-13T22:44:25.480Z,14.40
2023-05-13T22:47:12.768Z,12.70
2023-05-13T22:49:59.926Z,11.77
2023-05-13T22:52:47.142Z,11.77
2023-05-13T22:55:34.330Z,11.33
2023-05-13T22:58:21.726Z,14.17
2023-05-13T23:01:08.900Z,11.93
2023-05-13T23:03:56.241Z,12.30
2023-05-13T23:06:43.352Z,13.37
2023-05-13T23:09:30.485Z,12.47
2023-05-13T23:12:17.636Z,11.30
2023-05-13T23:15:07.029Z,14.13
2023-05-13T23:17:54.251Z,13.17
2023-05-13T23:20:41.393Z,13.27
2023-05-13T23:23:28.488Z,12.63
2023-05-13T23:26:15.870Z,14.50
2023-05-13T23:29:03.824Z,15.67
2023-05-13T23:31:51.011Z,13.00
2023-05-13T23:34:38.153Z,15.43
2023-05-13T23:37:25.705Z,15.80
2023-05-13T23:40:13.271Z,14.80
2023-05-13T23:43:00.890Z,14.77
2023-05-13T23:45:54.540Z,15.83
2023-05-13T23:48:41.744Z,12.80
2023-05-13T23:51:28.869Z,15.43
2023-05-13T23:54:17.464Z,13.10
2023-05-13T23:57:04.800Z,15.90
2023-05-13T23:59:52.063Z,15.23
